Time;durP1;ratioP1;P1;durP2;ratioP2;P2;SDS_P1;SDS_P2;PMS_P1;PMS_P2;Temp;Humidity;BMP_temperature;BMP_pressure;BME280_temperature;BME280_humidity;BME280_pressure;Samples;Min_cycle;Max_cycle;Signal;HPM_P1;HPM_P2
2024/01/01 00:04:21;;;;;;;18.20;15.85;;;24.50;46.00;;;;;;10190299;29;20067;-50
2024/01/01 00:09:23;;;;;;;17.92;16.02;;;24.30;46.20;;;;;;10193192;28;20471;-47
2024/01/01 00:14:25;;;;;;;19.33;15.88;;;24.40;46.20;;;;;;10160104;28;20130;-47
2024/01/01 00:19:27;;;;;;;18.10;16.13;;;24.50;46.00;;;;;;10198913;28;20062;-51
2024/01/01 00:24:29;;;;;;;18.50;16.45;;;24.50;46.00;;;;;;10233308;28;20053;-47
2024/01/01 00:29:32;;;;;;;18.63;16.65;;;24.60;46.20;;;;;;10194579;28;20054;-49
2024/01/01 00:34:33;;;;;;;20.02;16.27;;;24.60;46.00;;;;;;10192253;28;21757;-48
2024/01/01 00:39:35;;;;;;;19.60;16.58;;;24.70;46.10;;;;;;10233088;28;20141;-50
2024/01/01 00:44:38;;;;;;;18.17;16.23;;;24.60;45.90;;;;;;10235708;28;20054;-46
2024/01/01 00:49:40;;;;;;;19.80;16.08;;;24.70;45.90;;;;;;10226775;28;20067;-49
2024/01/01 00:54:42;;;;;;;17.52;15.63;;;24.50;46.00;;;;;;10232847;28;20047;-47
2024/01/01 00:59:44;;;;;;;18.50;16.05;;;24.60;45.90;;;;;;10235183;28;20494;-48
2024/01/01 01:04:47;;;;;;;17.50;15.55;;;24.70;45.70;;;;;;10234045;28;20421;-47
2024/01/01 01:09:48;;;;;;;18.15;15.38;;;24.80;45.40;;;;;;10226378;28;20581;-48
2024/01/01 01:14:51;;;;;;;17.90;15.70;;;24.70;45.50;;;;;;10229434;28;20131;-50
2024/01/01 01:19:53;;;;;;;17.75;14.73;;;24.70;45.40;;;;;;10224677;28;20058;-48
2024/01/01 01:24:54;;;;;;;17.42;15.27;;;24.70;45.40;;;;;;10222596;28;20141;-47
2024/01/01 01:29:57;;;;;;;16.20;14.50;;;24.80;45.10;;;;;;10230644;28;20561;-48
2024/01/01 01:34:59;;;;;;;16.42;14.73;;;24.80;45.30;;;;;;10227699;28;20056;-46
2024/01/01 01:40:01;;;;;;;16.50;14.75;;;24.80;45.10;;;;;;10234765;28;20130;-47
2024/01/01 01:45:04;;;;;;;15.77;14.18;;;24.70;45.20;;;;;;10226282;28;20066;-51
2024/01/01 01:50:07;;;;;;;15.10;13.50;;;24.80;45.20;;;;;;10230262;28;20146;-50
2024/01/01 01:55:09;;;;;;;15.63;14.02;;;24.80;45.00;;;;;;10237329;28;20047;-49
2024/01/01 02:00:13;;;;;;;15.82;13.10;;;24.90;45.00;;;;;;10216553;28;20051;-47
2024/01/01 02:05:15;;;;;;;15.32;13.35;;;24.90;44.90;;;;;;10226666;28;20059;-47
2024/01/01 02:10:16;;;;;;;16.08;12.98;;;24.90;45.00;;;;;;10238295;28;20039;-48
2024/01/01 02:15:20;;;;;;;14.02;12.30;;;24.80;44.90;;;;;;10229900;28;20054;-49
2024/01/01 02:20:21;;;;;;;14.05;12.18;;;24.80;44.90;;;;;;10236496;28;20044;-51
2024/01/01 02:25:24;;;;;;;14.23;12.55;;;24.90;44.80;;;;;;10224443;28;20072;-49
2024/01/01 02:30:26;;;;;;;13.05;11.30;;;24.90;44.80;;;;;;10184800;28;20051;-50
2024/01/01 02:35:28;;;;;;;13.48;11.73;;;24.80;44.70;;;;;;10192643;29;20135;-51
2024/01/01 02:40:32;;;;;;;13.20;11.15;;;24.80;44.80;;;;;;10188811;28;20047;-48
2024/01/01 02:45:33;;;;;;;13.05;11.25;;;24.80;44.90;;;;;;10210376;28;20130;-48
2024/01/01 02:50:36;;;;;;;12.43;11.13;;;24.80;44.80;;;;;;10252202;28;20525;-50
2024/01/01 02:55:39;;;;;;;11.90;10.52;;;24.90;44.60;;;;;;10246494;28;20048;-48
2024/01/01 03:00:41;;;;;;;11.70;10.50;;;24.80;44.80;;;;;;10230383;28;20047;-47
2024/01/01 03:05:43;;;;;;;10.98;9.88;;;24.90;44.50;;;;;;10243114;28;20387;-49
2024/01/01 03:10:46;;;;;;;10.98;9.77;;;24.80;44.60;;;;;;10243816;28;20508;-49
2024/01/01 03:15:47;;;;;;;10.55;9.25;;;24.90;44.40;;;;;;10235662;28;20486;-49
2024/01/01 03:20:49;;;;;;;10.65;9.15;;;24.90;44.50;;;;;;10241856;28;20066;-48
2024/01/01 03:25:52;;;;;;;10.73;9.63;;;24.90;44.30;;;;;;10243718;28;20145;-50
2024/01/01 03:30:53;;;;;;;10.25;9.02;;;24.90;44.40;;;;;;10235213;28;20043;-49
2024/01/01 03:35:55;;;;;;;9.70;8.70;;;24.90;44.30;;;;;;10198107;28;20060;-48
2024/01/01 03:40:58;;;;;;;9.25;8.32;;;24.90;44.30;;;;;;10214024;28;20046;-49
2024/01/01 03:46:00;;;;;;;10.48;9.23;;;24.90;44.30;;;;;;10253275;28;20063;-49
2024/01/01 03:51:02;;;;;;;9.45;8.45;;;24.90;44.30;;;;;;10253660;28;20409;-48
2024/01/01 03:56:06;;;;;;;9.35;8.35;;;24.90;44.10;;;;;;10232563;28;20055;-48
2024/01/01 04:01:12;;;;;;;9.25;8.15;;;24.90;44.30;;;;;;10229583;28;20123;-50
2024/01/01 04:06:13;;;;;;;9.48;8.48;;;24.90;44.20;;;;;;10239021;28;20425;-52
2024/01/01 04:11:16;;;;;;;8.70;7.80;;;25.00;44.20;;;;;;10243269;28;20066;-48
2024/01/01 04:16:18;;;;;;;8.10;7.30;;;25.10;44.20;;;;;;10253463;28;20048;-49
2024/01/01 04:21:20;;;;;;;7.88;7.07;;;25.10;44.20;;;;;;10245123;28;20044;-51
2024/01/01 04:26:23;;;;;;;8.20;7.40;;;25.10;44.20;;;;;;10232488;28;20051;-47
2024/01/01 04:31:24;;;;;;;7.90;7.13;;;25.10;44.20;;;;;;10231619;28;20040;-48
2024/01/01 04:36:26;;;;;;;6.90;6.30;;;25.20;44.40;;;;;;10239579;28;20130;-49
2024/01/01 04:41:29;;;;;;;7.10;6.40;;;25.30;44.20;;;;;;10247742;28;20498;-49
2024/01/01 04:46:30;;;;;;;6.97;6.28;;;25.20;44.20;;;;;;10228881;28;20101;-48
2024/01/01 04:51:32;;;;;;;6.85;6.15;;;25.30;44.10;;;;;;10271446;28;20039;-48
2024/01/01 04:56:35;;;;;;;7.28;6.38;;;25.30;44.20;;;;;;10229575;28;20138;-48
2024/01/01 05:01:36;;;;;;;6.68;5.97;;;25.30;44.10;;;;;;10245039;28;20413;-50
2024/01/01 05:06:38;;;;;;;5.97;5.35;;;25.40;44.10;;;;;;10234848;28;20051;-50
2024/01/01 05:11:41;;;;;;;5.65;5.15;;;25.50;44.00;;;;;;10240226;28;20171;-49
2024/01/01 05:16:46;;;;;;;6.22;5.63;;;25.40;44.00;;;;;;10229500;28;20051;-50
2024/01/01 05:21:48;;;;;;;5.47;4.97;;;25.50;44.00;;;;;;10277176;28;20055;-48
2024/01/01 05:26:51;;;;;;;8.07;4.97;;;25.50;44.00;;;;;;10243193;28;20057;-48
2024/01/01 05:31:53;;;;;;;5.55;5.05;;;25.50;44.10;;;;;;10242520;28;20055;-52
2024/01/01 05:36:55;;;;;;;5.32;4.82;;;25.50;44.10;;;;;;10237955;28;20432;-48
2024/01/01 05:41:58;;;;;;;4.80;4.35;;;25.50;44.10;;;;;;10233221;28;20050;-53
2024/01/01 05:46:59;;;;;;;5.22;4.72;;;25.40;44.10;;;;;;10263232;28;20047;-48
2024/01/01 05:52:01;;;;;;;5.18;4.68;;;25.50;44.20;;;;;;10233242;28;20053;-50
2024/01/01 05:57:04;;;;;;;4.40;4.00;;;25.40;44.20;;;;;;10221959;28;20047;-48
2024/01/01 06:02:07;;;;;;;4.90;4.40;;;25.50;44.20;;;;;;10244836;28;20150;-49
2024/01/01 06:07:09;;;;;;;4.28;3.88;;;25.40;44.20;;;;;;10235827;28;20081;-52
2024/01/01 06:12:12;;;;;;;4.45;4.05;;;25.30;44.30;;;;;;10234595;28;20134;-50
2024/01/01 06:17:14;;;;;;;4.63;4.10;;;25.50;43.80;;;;;;10210177;28;20623;-51
2024/01/01 06:22:15;;;;;;;4.28;3.88;;;25.50;43.60;;;;;;10190380;28;20043;-50
2024/01/01 06:27:18;;;;;;;5.20;4.32;;;25.50;43.30;;;;;;10217290;28;20062;-49
2024/01/01 06:32:20;;;;;;;4.50;4.10;;;25.60;43.00;;;;;;10229642;28;20078;-49
2024/01/01 06:37:21;;;;;;;4.50;4.10;;;25.60;42.80;;;;;;10228329;28;20097;-49
2024/01/01 06:42:24;;;;;;;4.25;3.67;;;25.60;42.70;;;;;;10236606;28;20101;-52
2024/01/01 06:47:26;;;;;;;4.40;4.00;;;25.60;42.70;;;;;;10245918;28;20524;-48
2024/01/01 06:52:28;;;;;;;4.38;3.50;;;25.50;42.50;;;;;;10240678;28;20511;-48
2024/01/01 06:57:31;;;;;;;4.32;3.70;;;25.50;42.50;;;;;;10243628;28;20501;-51
2024/01/01 07:02:32;;;;;;;3.95;3.55;;;25.40;42.60;;;;;;10237030;28;20404;-49
2024/01/01 07:07:34;;;;;;;4.07;3.63;;;25.30;42.50;;;;;;10233817;28;20047;-51
2024/01/01 07:12:37;;;;;;;4.05;3.35;;;25.40;42.30;;;;;;10255241;28;20050;-49
2024/01/01 07:17:39;;;;;;;4.75;3.30;;;25.40;41.80;;;;;;10241658;28;20097;-51
2024/01/01 07:22:40;;;;;;;5.68;3.83;;;25.10;40.60;;;;;;10228556;28;20139;-48
2024/01/01 07:27:43;;;;;;;7.75;3.72;;;24.50;42.20;;;;;;10233510;28;20048;-48
2024/01/01 07:32:45;;;;;;;9.65;4.07;;;25.10;41.40;;;;;;10242562;28;20051;-51
2024/01/01 07:37:47;;;;;;;6.05;3.95;;;25.10;41.00;;;;;;10205748;28;20509;-49
2024/01/01 07:42:50;;;;;;;6.32;3.42;;;24.90;41.50;;;;;;10202508;28;20432;-49
2024/01/01 07:47:52;;;;;;;6.13;3.80;;;25.00;41.40;;;;;;10195484;29;20062;-52
2024/01/01 07:52:53;;;;;;;4.65;3.60;;;24.90;41.70;;;;;;10195362;28;20135;-48
2024/01/01 07:57:56;;;;;;;5.18;3.78;;;24.90;41.90;;;;;;10229497;28;20054;-48
2024/01/01 08:02:58;;;;;;;8.93;4.05;;;24.70;42.40;;;;;;10247216;28;20047;-49
2024/01/01 08:07:59;;;;;;;11.43;3.95;;;24.70;42.80;;;;;;10240210;28;20052;-48
2024/01/01 08:13:02;;;;;;;8.95;3.72;;;24.70;43.90;;;;;;10302086;28;20057;-48
2024/01/01 08:18:05;;;;;;;5.10;3.50;;;24.70;43.10;;;;;;10445164;28;20051;-49
2024/01/01 08:23:06;;;;;;;4.90;3.50;;;24.60;43.20;;;;;;10441860;28;20140;-48
2024/01/01 08:28:09;;;;;;;16.40;4.00;;;24.50;43.10;;;;;;10451567;28;20041;-49
2024/01/01 08:33:13;;;;;;;9.27;3.38;;;24.50;43.20;;;;;;10448464;28;20044;-50
2024/01/01 08:38:14;;;;;;;6.57;3.47;;;24.40;43.40;;;;;;10446302;28;20063;-48
2024/01/01 08:43:17;;;;;;;15.45;4.95;;;24.50;43.90;;;;;;10441791;28;20123;-52
2024/01/01 08:48:19;;;;;;;19.88;5.97;;;24.70;45.20;;;;;;10441103;28;20044;-50
2024/01/01 08:53:21;;;;;;;13.80;5.20;;;25.00;46.10;;;;;;10442306;28;20040;-51
2024/01/01 08:58:24;;;;;;;13.05;3.72;;;24.90;46.40;;;;;;10436018;28;20172;-48
2024/01/01 09:03:27;;;;;;;10.43;3.47;;;25.00;45.70;;;;;;10281148;28;20050;-50
2024/01/01 09:08:29;;;;;;;10.23;3.03;;;24.70;45.30;;;;;;10200766;28;20102;-48
2024/01/01 09:13:32;;;;;;;9.68;2.72;;;24.60;45.20;;;;;;10195372;28;20051;-49
2024/01/01 09:18:33;;;;;;;9.43;2.92;;;24.70;44.70;;;;;;10229358;28;20493;-48
2024/01/01 09:23:35;;;;;;;5.60;2.70;;;24.80;44.30;;;;;;10235774;28;21438;-48
2024/01/01 09:28:38;;;;;;;6.82;2.10;;;25.00;44.30;;;;;;10210219;28;20135;-48
2024/01/01 09:33:39;;;;;;;14.25;2.97;;;24.70;44.80;;;;;;10188775;28;20054;-51
2024/01/01 09:38:42;;;;;;;13.95;3.17;;;24.80;44.60;;;;;;10220236;28;20128;-49
2024/01/01 09:43:45;;;;;;;8.50;2.50;;;24.90;44.40;;;;;;10227740;28;20047;-50
2024/01/01 09:48:46;;;;;;;4.32;2.20;;;24.90;44.60;;;;;;10238913;28;20052;-48
2024/01/01 09:53:48;;;;;;;4.72;2.20;;;24.90;44.60;;;;;;10248059;28;20641;-51
2024/01/01 09:58:51;;;;;;;6.03;2.30;;;24.90;44.30;;;;;;10254616;28;20081;-48
2024/01/01 10:04:00;;;;;;;7.13;2.42;;;25.00;44.10;;;;;;10245050;28;20131;-51
2024/01/01 10:09:06;;;;;;;11.60;2.30;;;24.90;44.00;;;;;;10238957;28;20549;-50
2024/01/01 10:14:09;;;;;;;30.20;3.10;;;24.80;44.40;;;;;;10229280;28;20048;-51
2024/01/01 10:19:12;;;;;;;18.20;2.83;;;24.60;46.10;;;;;;10262603;28;20525;-48
2024/01/01 10:24:15;;;;;;;14.90;2.90;;;24.60;46.80;;;;;;10195433;28;20059;-48
2024/01/01 10:29:19;;;;;;;11.88;2.75;;;24.60;47.10;;;;;;10192341;28;20130;-48
2024/01/01 10:34:21;;;;;;;12.40;2.70;;;24.90;46.80;;;;;;10195229;28;20056;-48
2024/01/01 10:39:23;;;;;;;10.85;3.17;;;24.60;47.30;;;;;;10194701;28;20083;-49
2024/01/01 10:44:25;;;;;;;9.50;2.70;;;24.60;47.60;;;;;;10202270;28;20039;-48
2024/01/01 10:49:29;;;;;;;8.10;2.80;;;24.90;46.70;;;;;;10195251;28;20044;-49
2024/01/01 10:54:54;;;;;;;10.52;3.45;;;24.70;47.50;;;;;;10185864;28;20113;-53
2024/01/01 11:00:01;;;;;;;14.38;3.60;;;24.70;47.50;;;;;;10185131;28;20132;-47
2024/01/01 11:05:07;;;;;;;12.25;3.75;;;24.90;47.50;;;;;;10193937;28;20051;-50
2024/01/01 11:10:08;;;;;;;9.35;3.65;;;24.80;47.90;;;;;;10240715;28;20078;-50
2024/01/01 11:15:42;;;;;;;13.35;3.63;;;24.70;48.10;;;;;;10233532;28;20044;-47
2024/01/01 11:20:51;;;;;;;23.70;3.78;;;24.70;48.30;;;;;;10197689;28;20123;-47
2024/01/01 11:25:55;;;;;;;18.77;3.70;;;24.80;48.80;;;;;;10206970;28;20154;-49
2024/01/01 11:30:58;;;;;;;12.63;3.22;;;24.80;49.20;;;;;;10245719;28;20058;-48
2024/01/01 11:36:05;;;;;;;9.93;3.22;;;24.90;49.30;;;;;;10242538;28;20047;-50
2024/01/01 11:41:07;;;;;;;17.35;3.50;;;24.80;49.30;;;;;;10228168;28;20048;-49
2024/01/01 11:46:10;;;;;;;11.23;3.08;;;24.90;49.30;;;;;;10218567;28;20046;-51
2024/01/01 11:51:11;;;;;;;18.98;3.20;;;24.90;49.00;;;;;;10238120;28;20053;-48
2024/01/01 11:56:13;;;;;;;11.73;2.90;;;24.90;48.40;;;;;;10235479;28;20050;-48
2024/01/01 12:01:16;;;;;;;8.80;3.17;;;24.80;48.40;;;;;;10216877;28;20059;-49
2024/01/01 12:06:18;;;;;;;8.98;3.17;;;24.90;48.10;;;;;;10201778;28;20065;-47
2024/01/01 12:11:19;;;;;;;7.18;2.92;;;24.80;47.70;;;;;;10189808;28;20146;-50
2024/01/01 12:16:22;;;;;;;6.47;3.03;;;24.80;47.50;;;;;;10186599;28;20532;-49
2024/01/01 12:21:24;;;;;;;11.00;3.15;;;24.90;47.00;;;;;;10191578;28;20058;-49
2024/01/01 12:26:26;;;;;;;7.80;3.13;;;24.90;47.10;;;;;;10192727;28;20056;-53
2024/01/01 12:31:29;;;;;;;10.40;3.28;;;24.80;46.90;;;;;;10193322;28;20494;-50
2024/01/01 12:36:30;;;;;;;6.22;2.95;;;24.90;46.80;;;;;;10189739;28;20048;-48
2024/01/01 12:41:32;;;;;;;10.88;2.55;;;24.90;46.60;;;;;;10191729;28;20048;-52
2024/01/01 12:46:35;;;;;;;3.70;2.28;;;24.90;48.50;;;;;;10194898;28;20054;-48
2024/01/01 12:51:37;;;;;;;5.97;2.55;;;24.90;50.00;;;;;;10185407;28;20151;-52
2024/01/01 12:56:38;;;;;;;11.70;2.78;;;25.00;51.00;;;;;;10197959;28;20143;-48
2024/01/01 13:01:41;;;;;;;7.72;2.75;;;25.00;50.50;;;;;;10187250;28;20058;-48
2024/01/01 13:06:43;;;;;;;8.70;2.58;;;25.00;49.50;;;;;;10191729;28;20050;-48
2024/01/01 13:11:45;;;;;;;6.38;2.80;;;24.90;49.10;;;;;;10187454;28;20052;-48
2024/01/01 13:16:49;;;;;;;11.25;3.17;;;25.00;48.90;;;;;;10190445;28;20059;-51
2024/01/01 13:21:50;;;;;;;6.22;3.60;;;24.80;48.70;;;;;;10188161;28;20063;-48
2024/01/01 13:26:52;;;;;;;10.63;3.97;;;24.90;49.00;;;;;;10182252;28;20464;-50
2024/01/01 13:31:55;;;;;;;11.20;4.63;;;24.90;49.60;;;;;;10184618;28;20138;-48
2024/01/01 13:36:57;;;;;;;25.20;6.30;;;24.90;49.20;;;;;;10182770;28;20085;-49
2024/01/01 13:41:59;;;;;;;15.80;5.43;;;24.90;49.30;;;;;;10201635;29;20049;-48
2024/01/01 13:47:03;;;;;;;9.23;5.60;;;25.00;48.80;;;;;;10229279;28;20073;-49
2024/01/01 13:52:05;;;;;;;10.68;5.63;;;25.20;48.50;;;;;;10232833;28;20138;-49
2024/01/01 13:57:07;;;;;;;11.63;6.28;;;25.10;47.90;;;;;;10223832;28;20146;-49
2024/01/01 14:02:10;;;;;;;11.27;6.97;;;25.20;47.60;;;;;;10227551;28;20046;-49
2024/01/01 14:07:12;;;;;;;17.95;8.15;;;25.50;47.20;;;;;;10234587;28;20051;-48
2024/01/01 14:12:13;;;;;;;19.30;8.95;;;25.40;48.70;;;;;;10226378;28;20058;-49
2024/01/01 14:17:16;;;;;;;17.00;8.73;;;25.20;48.70;;;;;;10218540;28;20054;-48
2024/01/01 14:22:18;;;;;;;24.23;10.77;;;25.50;47.00;;;;;;10188506;28;20044;-47
2024/01/01 14:27:19;;;;;;;16.00;9.45;;;25.50;46.30;;;;;;10193926;28;20061;-50
2024/01/01 14:32:22;;;;;;;13.85;10.18;;;25.60;45.40;;;;;;10215194;28;20048;-52
2024/01/01 14:37:24;;;;;;;14.35;11.60;;;25.60;44.70;;;;;;10228223;28;20134;-47
2024/01/01 14:42:25;;;;;;;13.80;12.40;;;25.60;44.90;;;;;;10234085;28;20050;-49
2024/01/01 14:47:30;;;;;;;17.20;13.85;;;25.70;45.00;;;;;;10241236;28;20083;-47
2024/01/01 14:52:31;;;;;;;18.20;14.30;;;25.70;44.60;;;;;;10217594;28;20052;-48
2024/01/01 14:57:33;;;;;;;19.02;16.98;;;25.60;44.50;;;;;;10228125;28;20054;-46
2024/01/01 15:02:36;;;;;;;24.88;19.67;;;25.50;44.30;;;;;;10241839;28;20068;-50
2024/01/01 15:07:37;;;;;;;20.23;18.17;;;25.40;44.90;;;;;;10215576;28;20147;-49
2024/01/01 15:12:39;;;;;;;22.63;20.13;;;25.40;44.70;;;;;;10198517;28;20048;-48
2024/01/01 15:17:43;;;;;;;22.42;20.23;;;25.30;45.10;;;;;;10219207;28;20063;-52
2024/01/01 15:22:45;;;;;;;27.38;23.88;;;25.30;45.20;;;;;;10222853;28;20071;-46
2024/01/01 15:27:47;;;;;;;36.15;31.90;;;25.40;45.00;;;;;;10239964;28;20112;-45
2024/01/01 15:32:50;;;;;;;34.90;30.10;;;25.50;44.60;;;;;;10235858;28;20058;-49
2024/01/01 15:37:51;;;;;;;43.38;35.05;;;25.40;44.80;;;;;;10232136;28;20051;-46
2024/01/01 15:42:55;;;;;;;38.85;33.72;;;25.30;45.10;;;;;;10242982;28;20043;-50
2024/01/01 15:47:58;;;;;;;42.35;37.08;;;25.30;45.10;;;;;;10214916;28;20047;-46
2024/01/01 15:52:59;;;;;;;46.78;38.00;;;25.40;45.20;;;;;;10199321;28;20052;-50
2024/01/01 15:58:01;;;;;;;48.78;42.85;;;25.50;44.70;;;;;;10226042;28;20071;-48
2024/01/01 16:03:04;;;;;;;59.13;47.50;;;25.20;45.00;;;;;;10231946;28;20054;-46
2024/01/01 16:08:06;;;;;;;55.75;45.95;;;25.30;44.90;;;;;;10226234;28;20047;-47
2024/01/01 16:13:08;;;;;;;66.90;48.65;;;25.20;45.00;;;;;;10232677;28;20054;-47
2024/01/01 16:18:11;;;;;;;59.47;49.55;;;25.10;45.40;;;;;;10236016;28;20117;-46
2024/01/01 16:23:13;;;;;;;56.80;46.10;;;24.80;45.90;;;;;;10226483;28;20098;-48
2024/01/01 16:28:14;;;;;;;48.25;39.75;;;24.70;46.30;;;;;;10230342;28;20486;-49
2024/01/01 16:33:17;;;;;;;46.63;37.50;;;24.80;46.30;;;;;;10230939;28;20128;-45
2024/01/01 16:38:19;;;;;;;41.55;35.17;;;25.00;46.20;;;;;;10236159;28;20043;-48
2024/01/01 16:43:20;;;;;;;42.67;32.17;;;25.00;46.20;;;;;;10204185;28;20558;-45
2024/01/01 16:48:24;;;;;;;33.30;24.58;;;25.00;46.50;;;;;;10188274;28;20066;-45
2024/01/01 16:53:26;;;;;;;28.50;21.60;;;24.90;45.80;;;;;;10190586;28;20050;-48
2024/01/01 16:58:27;;;;;;;24.05;17.48;;;24.90;45.10;;;;;;10223667;28;20553;-46
2024/01/01 17:03:30;;;;;;;16.63;14.15;;;25.00;44.60;;;;;;10226292;28;20043;-48
2024/01/01 17:08:32;;;;;;;20.35;14.80;;;25.00;43.70;;;;;;10231706;28;20536;-48
2024/01/01 17:13:33;;;;;;;23.35;14.60;;;24.90;44.10;;;;;;10231444;28;20078;-47
2024/01/01 17:18:37;;;;;;;20.60;12.68;;;24.80;44.60;;;;;;10234401;28;20045;-48
2024/01/01 17:23:38;;;;;;;15.68;12.05;;;24.80;44.70;;;;;;10230175;28;20051;-46
2024/01/01 17:28:40;;;;;;;29.73;12.32;;;24.90;44.80;;;;;;10229529;28;20048;-49
2024/01/01 17:33:44;;;;;;;18.70;10.88;;;24.90;45.00;;;;;;10230814;28;20560;-52
2024/01/01 17:38:48;;;;;;;16.67;10.05;;;24.90;44.50;;;;;;10224628;29;20051;-45
2024/01/01 17:43:51;;;;;;;15.85;9.02;;;24.80;44.80;;;;;;10228384;28;20093;-46
2024/01/01 17:48:54;;;;;;;14.75;9.05;;;24.80;44.60;;;;;;10192026;29;20147;-46
2024/01/01 17:53:55;;;;;;;15.25;8.25;;;24.60;45.10;;;;;;10188638;28;20046;-46
2024/01/01 17:58:57;;;;;;;12.25;8.80;;;24.60;45.10;;;;;;10227166;28;20044;-47
2024/01/01 18:04:00;;;;;;;11.07;8.30;;;24.90;44.40;;;;;;10230789;28;20468;-49
2024/01/01 18:09:01;;;;;;;13.40;8.10;;;25.00;43.80;;;;;;10224169;28;20051;-45
2024/01/01 18:14:03;;;;;;;12.40;7.72;;;25.00;43.70;;;;;;10234090;28;20048;-48
2024/01/01 18:19:06;;;;;;;10.98;6.93;;;25.10;43.60;;;;;;10230576;28;20606;-46
2024/01/01 18:24:08;;;;;;;9.27;7.18;;;25.00;43.60;;;;;;10240043;28;20770;-49
2024/01/01 18:29:09;;;;;;;10.88;7.20;;;25.10;43.40;;;;;;10233968;28;20048;-48
2024/01/01 18:34:12;;;;;;;9.70;6.30;;;25.10;43.20;;;;;;10242194;28;20054;-46
2024/01/01 18:39:14;;;;;;;9.27;6.22;;;25.00;43.10;;;;;;10242636;28;20047;-49
2024/01/01 18:44:16;;;;;;;7.88;6.18;;;25.10;43.00;;;;;;10232706;28;20106;-45
2024/01/01 18:49:20;;;;;;;10.88;5.47;;;25.00;43.20;;;;;;10231735;28;20055;-47
2024/01/01 18:54:25;;;;;;;11.15;5.38;;;24.70;45.60;;;;;;10236802;28;20043;-47
2024/01/01 18:59:26;;;;;;;9.20;4.38;;;24.70;45.00;;;;;;10238638;28;20050;-45
2024/01/01 19:04:32;;;;;;;5.20;3.83;;;24.60;44.90;;;;;;10192673;28;20047;-48
2024/01/01 19:09:34;;;;;;;7.32;4.10;;;24.80;44.20;;;;;;10240379;28;20051;-58
2024/01/01 19:14:36;;;;;;;8.25;3.95;;;24.70;44.20;;;;;;10190143;28;20086;-46
2024/01/01 19:19:40;;;;;;;23.08;5.13;;;24.70;43.10;;;;;;10183888;28;20058;-49
2024/01/01 19:24:42;;;;;;;25.70;5.15;;;24.70;43.30;;;;;;10190517;28;20078;-52
2024/01/01 19:29:44;;;;;;;19.63;4.75;;;24.90;42.30;;;;;;10221316;28;20070;-46
2024/01/01 19:34:46;;;;;;;15.13;4.50;;;24.80;42.60;;;;;;10190911;28;20043;-46
2024/01/01 19:39:48;;;;;;;12.75;3.63;;;24.50;42.60;;;;;;10184854;28;20054;-48
2024/01/01 19:44:50;;;;;;;9.65;3.88;;;24.30;42.80;;;;;;10188808;29;20067;-46
2024/01/01 19:49:53;;;;;;;12.52;3.22;;;24.20;43.00;;;;;;10201995;28;20062;-50
2024/01/01 19:54:54;;;;;;;8.75;2.78;;;24.30;42.10;;;;;;10196583;28;20050;-45
2024/01/01 19:59:56;;;;;;;13.07;3.25;;;24.20;41.90;;;;;;10186136;29;20054;-46
2024/01/01 20:05:00;;;;;;;11.95;3.50;;;24.50;42.30;;;;;;10198341;29;20495;-49
2024/01/01 20:10:01;;;;;;;8.57;3.17;;;24.90;41.90;;;;;;10196303;28;20051;-46
2024/01/01 20:15:03;;;;;;;8.73;3.25;;;24.80;42.30;;;;;;10196789;28;20127;-45
2024/01/01 20:20:08;;;;;;;16.58;3.03;;;24.90;42.80;;;;;;10199088;28;20050;-47
2024/01/01 20:25:10;;;;;;;10.90;2.92;;;24.80;43.10;;;;;;10202610;29;20097;-46
2024/01/01 20:30:12;;;;;;;5.95;2.92;;;25.00;42.70;;;;;;10197092;28;20134;-45
2024/01/01 20:35:15;;;;;;;9.02;3.00;;;25.20;42.40;;;;;;10196477;28;20623;-51
2024/01/01 20:40:17;;;;;;;10.02;3.03;;;25.20;42.30;;;;;;10184323;28;20074;-45
2024/01/01 20:45:18;;;;;;;7.13;2.90;;;25.20;42.30;;;;;;10190042;28;20040;-45
2024/01/01 20:50:21;;;;;;;4.22;2.38;;;25.30;42.20;;;;;;10192304;28;20072;-46
2024/01/01 20:55:23;;;;;;;4.95;2.40;;;25.20;42.40;;;;;;10193730;28;20048;-48
2024/01/01 21:00:25;;;;;;;8.13;2.45;;;25.20;42.00;;;;;;10200808;28;20054;-46
2024/01/01 21:05:28;;;;;;;5.45;2.03;;;24.90;42.90;;;;;;10242187;28;20179;-46
2024/01/01 21:10:30;;;;;;;7.90;2.80;;;24.50;43.60;;;;;;10223165;28;20075;-45
2024/01/01 21:15:32;;;;;;;8.95;2.50;;;24.40;42.60;;;;;;10198445;28;20048;-45
2024/01/01 21:20:35;;;;;;;10.10;2.58;;;24.30;43.10;;;;;;10189279;28;20166;-46
2024/01/01 21:25:36;;;;;;;18.40;2.90;;;24.10;43.20;;;;;;10197600;28;20051;-45
2024/01/01 21:30:38;;;;;;;12.15;3.10;;;24.30;44.10;;;;;;10229869;28;20047;-46
2024/01/01 21:35:41;;;;;;;9.35;3.28;;;24.20;44.60;;;;;;10229449;28;20046;-48
2024/01/01 21:40:46;;;;;;;9.82;2.88;;;24.20;44.80;;;;;;10221694;28;21332;-47
2024/01/01 21:45:47;;;;;;;9.32;3.83;;;24.10;45.10;;;;;;10199328;28;20070;-46
2024/01/01 21:50:50;;;;;;;9.75;3.45;;;24.10;45.30;;;;;;10184441;28;20051;-45
2024/01/01 21:55:52;;;;;;;9.55;3.30;;;24.10;45.80;;;;;;10186717;28;20573;-48
2024/01/01 22:00:53;;;;;;;12.40;3.72;;;24.00;45.80;;;;;;10188582;28;20462;-45
2024/01/01 22:05:56;;;;;;;16.13;4.35;;;24.00;46.10;;;;;;10189220;28;20052;-48
2024/01/01 22:10:58;;;;;;;13.77;3.65;;;24.00;46.20;;;;;;10194404;28;20055;-46
2024/01/01 22:16:01;;;;;;;9.95;3.38;;;24.10;46.30;;;;;;10184452;29;20106;-49
2024/01/01 22:21:05;;;;;;;8.88;3.72;;;24.10;46.40;;;;;;10186581;29;20134;-45
2024/01/01 22:26:12;;;;;;;8.05;3.63;;;24.10;46.40;;;;;;10192584;29;20097;-45
2024/01/01 22:31:14;;;;;;;10.48;3.45;;;24.10;46.60;;;;;;10189682;29;20048;-48
2024/01/01 22:36:17;;;;;;;5.78;3.50;;;24.00;46.80;;;;;;10189555;29;20052;-45
2024/01/01 22:41:19;;;;;;;11.00;3.85;;;24.10;46.80;;;;;;10184164;29;20044;-46
2024/01/01 22:46:20;;;;;;;7.85;3.15;;;24.10;46.80;;;;;;10186565;28;20062;-49
2024/01/01 22:51:23;;;;;;;7.93;3.30;;;24.10;46.70;;;;;;10189447;29;20058;-45
2024/01/01 22:56:25;;;;;;;7.55;3.50;;;24.10;46.80;;;;;;10189831;28;20052;-48
2024/01/01 23:01:26;;;;;;;6.50;3.38;;;24.20;46.80;;;;;;10187864;28;20054;-45
2024/01/01 23:06:30;;;;;;;9.68;3.42;;;24.20;46.90;;;;;;10183665;28;20043;-47
2024/01/01 23:11:33;;;;;;;6.18;3.47;;;24.10;47.20;;;;;;10184787;28;20113;-47
2024/01/01 23:16:35;;;;;;;6.80;3.08;;;24.20;47.00;;;;;;10192995;28;20123;-45
2024/01/01 23:21:38;;;;;;;6.50;3.40;;;24.20;47.10;;;;;;10186845;29;20532;-46
2024/01/01 23:26:40;;;;;;;6.63;3.13;;;24.00;47.20;;;;;;10191989;29;20115;-48
2024/01/01 23:31:42;;;;;;;7.03;3.35;;;24.20;47.20;;;;;;10196186;29;20098;-46
2024/01/01 23:36:45;;;;;;;7.95;3.60;;;24.20;47.20;;;;;;10190814;28;20581;-45
2024/01/01 23:41:47;;;;;;;4.95;2.90;;;24.20;47.20;;;;;;10196257;29;20067;-45
2024/01/01 23:46:48;;;;;;;3.95;2.33;;;24.10;47.20;;;;;;10189683;29;20048;-45
2024/01/01 23:51:52;;;;;;;6.10;2.80;;;24.10;47.20;;;;;;10185726;29;20103;-44
2024/01/01 23:56:53;;;;;;;5.93;2.90;;;24.10;47.20;;;;;;10184185;28;20521;-45
